Time;durP1;ratioP1;P1;durP2;ratioP2;P2;SDS_P1;SDS_P2;PMS_P1;PMS_P2;Temp;Humidity;BMP_temperature;BMP_pressure;BME280_temperature;BME280_humidity;BME280_pressure;Samples;Min_cycle;Max_cycle;Signal;HPM_P1;HPM_P2
2021/04/13 00:01:15;;;;;;;9.77;8.45;;;6.90;57.30;;;;;;1492273;39;20238;-57
2021/04/13 00:02:38;;;;;;;11.23;8.98;;;6.90;57.40;;;;;;1496420;39;20034;-54
2021/04/13 00:04:05;;;;;;;10.27;9.27;;;6.90;57.40;;;;;;1495347;39;20039;-53
2021/04/13 00:05:44;;;;;;;9.80;8.82;;;6.90;57.50;;;;;;1498806;39;20257;-56
2021/04/13 00:07:05;;;;;;;9.40;8.30;;;6.90;57.60;;;;;;1497667;39;20061;-54
2021/04/13 00:08:26;;;;;;;11.57;9.75;;;6.90;57.40;;;;;;1496013;39;20241;-55
2021/04/13 00:09:47;;;;;;;11.38;9.68;;;6.90;57.40;;;;;;1498369;39;20047;-52
2021/04/13 00:11:11;;;;;;;10.73;9.52;;;6.90;57.40;;;;;;1495940;39;20047;-51
2021/04/13 00:12:32;;;;;;;10.35;9.32;;;6.90;57.50;;;;;;1497701;39;20103;-55
2021/04/13 00:13:56;;;;;;;11.05;9.30;;;6.90;57.50;;;;;;1495640;39;20310;-53
2021/04/13 00:15:29;;;;;;;11.27;9.50;;;6.80;57.40;;;;;;1495504;39;20027;-52
2021/04/13 00:16:51;;;;;;;10.52;9.43;;;6.80;57.70;;;;;;1499006;39;20060;-52
2021/04/13 00:18:20;;;;;;;12.18;9.82;;;6.90;57.50;;;;;;1497631;39;20367;-54
2021/04/13 00:20:16;;;;;;;10.15;9.15;;;6.90;57.60;;;;;;1494265;39;20385;-52
2021/04/13 00:21:44;;;;;;;10.27;9.18;;;6.80;57.80;;;;;;1498114;39;20031;-54
2021/04/13 00:23:06;;;;;;;11.02;9.85;;;6.80;57.60;;;;;;1495093;39;20050;-54
2021/04/13 00:24:27;;;;;;;10.80;9.70;;;6.80;57.40;;;;;;1496797;39;20015;-55
2021/04/13 00:25:53;;;;;;;11.65;9.60;;;6.80;57.40;;;;;;1495953;39;20019;-55
2021/04/13 00:27:16;;;;;;;10.38;9.30;;;6.80;57.50;;;;;;1495202;39;20031;-55
2021/04/13 00:28:45;;;;;;;9.82;8.82;;;6.80;57.40;;;;;;1493328;39;20023;-52
2021/04/13 00:30:15;;;;;;;10.65;9.40;;;6.80;57.60;;;;;;1497906;39;20046;-53
2021/04/13 00:31:45;;;;;;;13.43;9.43;;;6.80;57.70;;;;;;1496448;39;20035;-54
2021/04/13 00:33:06;;;;;;;10.57;9.48;;;6.80;57.70;;;;;;1494862;39;20042;-53
2021/04/13 00:34:36;;;;;;;10.90;9.73;;;6.80;57.60;;;;;;1496199;39;20031;-52
2021/04/13 00:36:11;;;;;;;10.27;9.23;;;6.80;57.60;;;;;;1493092;39;20289;-54
2021/04/13 00:37:33;;;;;;;10.70;9.50;;;6.80;57.60;;;;;;1494049;39;20030;-52
2021/04/13 00:38:54;;;;;;;13.02;9.55;;;6.80;57.50;;;;;;1495838;39;20078;-53
2021/04/13 00:40:30;;;;;;;14.13;10.63;;;6.80;57.50;;;;;;1488567;39;20051;-53
2021/04/13 00:42:03;;;;;;;10.75;9.63;;;6.70;57.60;;;;;;1493433;39;20142;-55
2021/04/13 00:43:26;;;;;;;11.57;9.85;;;6.70;57.60;;;;;;1496771;39;20020;-51
2021/04/13 00:44:52;;;;;;;12.25;10.65;;;6.70;57.50;;;;;;1492941;39;20400;-54
2021/04/13 00:46:19;;;;;;;11.00;9.82;;;6.70;57.50;;;;;;1496105;39;20039;-54
2021/04/13 00:47:43;;;;;;;11.77;10.57;;;6.70;57.40;;;;;;1497741;39;20039;-52
2021/04/13 00:49:04;;;;;;;11.20;9.98;;;6.70;57.50;;;;;;1495184;39;20456;-52
2021/04/13 00:50:39;;;;;;;12.05;10.23;;;6.60;57.50;;;;;;1494536;39;20371;-54
2021/04/13 00:52:12;;;;;;;11.73;10.52;;;6.60;58.00;;;;;;1498232;39;20123;-51
2021/04/13 00:53:36;;;;;;;12.07;10.77;;;6.60;57.60;;;;;;1495575;39;20028;-55
2021/04/13 00:55:00;;;;;;;12.13;10.75;;;6.70;57.60;;;;;;1489217;39;20081;-56
2021/04/13 00:56:21;;;;;;;12.20;10.82;;;6.60;57.70;;;;;;1495277;39;20064;-55
2021/04/13 00:58:13;;;;;;;11.80;10.60;;;6.60;57.70;;;;;;1494169;39;20028;-54
2021/04/13 00:59:34;;;;;;;12.35;10.23;;;6.60;57.80;;;;;;1492371;39;20019;-55
2021/04/13 01:01:06;;;;;;;12.35;10.60;;;6.60;57.70;;;;;;1495511;39;20030;-51
2021/04/13 01:02:32;;;;;;;13.68;10.80;;;6.60;57.80;;;;;;1496776;39;20237;-53
2021/04/13 01:04:04;;;;;;;12.40;10.52;;;6.60;57.80;;;;;;1497101;39;20020;-55
2021/04/13 01:05:35;;;;;;;13.65;10.32;;;6.60;57.70;;;;;;1498397;39;20042;-55
2021/04/13 01:07:19;;;;;;;13.60;10.60;;;6.60;57.80;;;;;;1497088;39;20046;-56
2021/04/13 01:08:40;;;;;;;11.13;9.98;;;6.60;58.00;;;;;;1495249;39;20027;-55
2021/04/13 01:10:12;;;;;;;11.93;10.60;;;6.50;58.00;;;;;;1496147;39;20046;-54
2021/04/13 01:11:43;;;;;;;12.00;10.38;;;6.50;57.60;;;;;;1490542;39;20060;-54
2021/04/13 01:13:29;;;;;;;12.63;10.82;;;6.50;57.70;;;;;;1497414;39;20473;-53
2021/04/13 01:14:51;;;;;;;11.95;10.25;;;6.50;57.80;;;;;;1498023;39;20384;-54
2021/04/13 01:16:13;;;;;;;14.07;11.13;;;6.50;57.50;;;;;;1497831;39;20030;-53
2021/04/13 01:17:36;;;;;;;12.65;11.15;;;6.50;57.50;;;;;;1493819;39;20039;-54
2021/04/13 01:19:03;;;;;;;12.57;10.88;;;6.50;57.40;;;;;;1492573;39;20360;-55
2021/04/13 01:20:37;;;;;;;13.00;11.60;;;6.50;57.50;;;;;;1498245;39;20485;-54
2021/04/13 01:22:12;;;;;;;12.32;10.50;;;6.40;57.70;;;;;;1496653;39;20031;-52
2021/04/13 01:23:52;;;;;;;13.90;11.30;;;6.40;57.70;;;;;;1498175;39;20026;-53
2021/04/13 01:25:35;;;;;;;15.73;12.02;;;6.40;57.70;;;;;;1495554;39;20448;-54
2021/04/13 01:26:57;;;;;;;11.45;10.27;;;6.40;57.90;;;;;;1493759;39;20031;-54
2021/04/13 01:28:23;;;;;;;14.13;11.27;;;6.40;57.70;;;;;;1494661;39;20020;-52
2021/04/13 01:29:45;;;;;;;11.95;10.60;;;6.40;57.80;;;;;;1497250;39;20123;-53
2021/04/13 01:31:40;;;;;;;12.40;10.70;;;6.40;57.80;;;;;;1492635;39;20043;-54
2021/04/13 01:33:08;;;;;;;13.43;10.75;;;6.30;57.80;;;;;;1494621;39;20059;-55
2021/04/13 01:34:57;;;;;;;12.10;10.27;;;6.30;58.00;;;;;;1498015;39;20187;-53
2021/04/13 01:36:30;;;;;;;11.55;10.38;;;6.30;58.20;;;;;;1498036;39;20059;-51
2021/04/13 01:38:02;;;;;;;12.55;11.02;;;6.30;57.90;;;;;;1497902;39;20026;-55
2021/04/13 01:39:25;;;;;;;12.38;11.05;;;6.30;58.00;;;;;;1496474;39;20019;-52
2021/04/13 01:42:30;;;;;;;12.85;10.63;;;6.30;57.90;;;;;;1494708;39;20011;-51
2021/04/13 01:43:51;;;;;;;12.75;11.30;;;6.30;58.00;;;;;;1497690;39;20038;-53
2021/04/13 01:45:16;;;;;;;14.20;12.20;;;6.30;58.00;;;;;;1499178;39;20311;-55
2021/04/13 01:46:38;;;;;;;13.48;11.63;;;6.30;58.00;;;;;;1493010;39;20035;-53
2021/04/13 01:48:01;;;;;;;13.43;10.88;;;6.30;57.90;;;;;;1494861;39;20045;-53
2021/04/13 01:49:23;;;;;;;14.35;11.88;;;6.20;57.80;;;;;;1494778;39;20020;-53
2021/04/13 01:50:53;;;;;;;13.32;11.77;;;6.20;57.80;;;;;;1494979;39;20041;-55
2021/04/13 01:52:28;;;;;;;13.32;11.23;;;6.20;57.90;;;;;;1496555;39;20023;-54
2021/04/13 01:53:50;;;;;;;14.98;11.15;;;6.20;58.10;;;;;;1495850;39;20092;-52
2021/04/13 01:55:20;;;;;;;13.88;12.00;;;6.20;57.90;;;;;;1494508;39;20034;-55
2021/04/13 01:56:58;;;;;;;13.52;11.00;;;6.20;58.10;;;;;;1494140;39;20031;-54
2021/04/13 01:58:38;;;;;;;13.55;11.48;;;6.20;58.30;;;;;;1496712;39;20052;-55
2021/04/13 02:00:11;;;;;;;12.98;11.38;;;6.20;58.30;;;;;;1497435;39;20132;-52
2021/04/13 02:01:40;;;;;;;14.45;12.00;;;6.20;58.30;;;;;;1493856;39;20284;-53
2021/04/13 02:03:27;;;;;;;12.88;10.98;;;6.20;58.20;;;;;;1495233;39;20035;-54
2021/04/13 02:04:54;;;;;;;14.27;11.27;;;6.10;58.40;;;;;;1495219;39;20027;-54
2021/04/13 02:06:23;;;;;;;14.15;11.70;;;6.20;58.00;;;;;;1497994;39;20034;-53
2021/04/13 02:09:43;;;;;;;14.90;12.63;;;6.10;58.00;;;;;;1493392;39;20028;-54
2021/04/13 02:11:09;;;;;;;14.05;11.75;;;6.10;58.00;;;;;;1496805;39;20043;-53
2021/04/13 02:12:35;;;;;;;12.57;11.02;;;6.10;57.90;;;;;;1496051;39;20019;-53
2021/04/13 02:14:01;;;;;;;12.65;11.30;;;6.10;58.00;;;;;;1497699;39;20031;-55
2021/04/13 02:15:39;;;;;;;15.98;12.45;;;6.10;58.00;;;;;;1497444;39;20031;-54
2021/04/13 02:17:09;;;;;;;14.95;12.02;;;6.00;58.10;;;;;;1496077;39;20030;-54
2021/04/13 02:18:35;;;;;;;;;;;6.10;58.30;;;;;;1495897;39;20075;-56
2021/04/13 02:19:57;;;;;;;12.80;9.75;;;6.10;58.70;;;;;;1497947;39;20297;-50
2021/04/13 02:21:27;;;;;;;13.70;11.00;;;6.10;57.90;;;;;;1495484;39;20062;-54
2021/04/13 02:22:50;;;;;;;12.88;11.45;;;6.00;58.00;;;;;;1497192;39;20049;-55
2021/04/13 02:24:15;;;;;;;13.02;11.65;;;6.00;57.90;;;;;;1496367;39;20027;-54
2021/04/13 02:25:38;;;;;;;14.68;12.23;;;6.00;58.00;;;;;;1495592;39;20088;-55
2021/04/13 02:27:03;;;;;;;14.18;12.43;;;6.00;58.00;;;;;;1496324;39;20035;-51
2021/04/13 02:28:25;;;;;;;13.23;11.82;;;6.00;58.00;;;;;;1495411;39;20027;-52
2021/04/13 02:29:49;;;;;;;13.48;11.55;;;6.00;58.10;;;;;;1499077;39;20057;-51
2021/04/13 02:31:14;;;;;;;14.18;12.20;;;6.00;58.10;;;;;;1494766;39;20047;-55
2021/04/13 02:32:42;;;;;;;13.70;11.95;;;6.00;58.10;;;;;;1497830;39;20035;-51
2021/04/13 02:34:11;;;;;;;14.25;11.05;;;6.00;58.20;;;;;;1493097;39;20272;-54
2021/04/13 02:35:36;;;;;;;12.60;11.13;;;6.00;58.20;;;;;;1496205;39;20132;-53
2021/04/13 02:37:01;;;;;;;14.82;11.30;;;6.00;58.20;;;;;;1496336;39;20027;-54
2021/04/13 02:38:29;;;;;;;14.32;11.50;;;5.90;58.20;;;;;;1492437;39;20349;-51
2021/04/13 02:39:50;;;;;;;14.93;11.57;;;6.00;58.20;;;;;;1493766;39;20348;-53
2021/04/13 02:41:26;;;;;;;14.65;12.07;;;6.00;58.20;;;;;;1495548;39;20029;-54
2021/04/13 02:42:50;;;;;;;14.18;12.30;;;5.90;58.30;;;;;;1493260;39;20034;-51
2021/04/13 02:44:15;;;;;;;15.68;12.95;;;5.90;58.30;;;;;;1498495;39;20043;-51
2021/04/13 02:45:50;;;;;;;15.73;12.88;;;5.90;58.30;;;;;;1494350;39;20123;-56
2021/04/13 02:47:13;;;;;;;14.02;12.20;;;5.90;58.40;;;;;;1494146;39;20063;-52
2021/04/13 02:48:42;;;;;;;16.42;13.02;;;5.90;58.80;;;;;;1494457;39;20074;-53
2021/04/13 02:50:06;;;;;;;14.75;11.85;;;5.90;58.30;;;;;;1496006;39;20038;-53
2021/04/13 02:51:30;;;;;;;13.40;11.38;;;5.90;58.30;;;;;;1497455;39;20039;-57
2021/04/13 02:52:53;;;;;;;15.70;12.02;;;5.90;58.30;;;;;;1491327;39;20036;-55
2021/04/13 02:54:20;;;;;;;16.27;13.15;;;5.90;58.30;;;;;;1494593;39;20019;-54
2021/04/13 02:55:51;;;;;;;15.65;12.27;;;5.90;58.40;;;;;;1495538;39;20057;-53
2021/04/13 02:57:23;;;;;;;13.65;12.02;;;5.90;59.00;;;;;;1495658;39;20349;-54
2021/04/13 02:59:11;;;;;;;14.02;11.73;;;5.90;58.50;;;;;;1497840;39;20087;-55
2021/04/13 03:00:38;;;;;;;14.30;11.20;;;5.90;58.50;;;;;;1497574;39;20034;-50
2021/04/13 03:01:59;;;;;;;14.63;12.25;;;5.90;58.30;;;;;;1496573;39;20031;-51
2021/04/13 03:03:28;;;;;;;17.55;12.25;;;5.90;58.30;;;;;;1495845;39;20032;-56
2021/04/13 03:04:52;;;;;;;14.02;12.05;;;5.90;58.30;;;;;;1493540;39;20054;-56
2021/04/13 03:06:13;;;;;;;16.23;12.35;;;5.90;58.20;;;;;;1498579;39;20315;-55
2021/04/13 03:07:38;;;;;;;13.88;11.95;;;5.80;58.10;;;;;;1495182;39;20023;-50
2021/04/13 03:09:02;;;;;;;14.43;12.23;;;5.80;58.20;;;;;;1494090;39;20040;-52
2021/04/13 03:10:33;;;;;;;13.73;11.38;;;5.80;58.20;;;;;;1494671;39;20018;-51
2021/04/13 03:11:58;;;;;;;14.10;11.57;;;5.80;58.30;;;;;;1496562;39;20126;-56
2021/04/13 03:13:22;;;;;;;16.60;12.95;;;5.80;58.20;;;;;;1497402;39;20112;-53
2021/04/13 03:14:49;;;;;;;14.25;12.50;;;5.80;58.20;;;;;;1497453;39;20080;-54
2021/04/13 03:16:14;;;;;;;13.63;11.68;;;5.80;58.30;;;;;;1491862;39;20053;-53
2021/04/13 03:17:35;;;;;;;14.68;12.05;;;5.80;58.30;;;;;;1498665;39;20283;-49
2021/04/13 03:18:59;;;;;;;17.17;12.70;;;5.80;58.30;;;;;;1494824;39;20042;-51
2021/04/13 03:20:30;;;;;;;15.43;12.88;;;5.80;58.40;;;;;;1495038;39;20035;-53
2021/04/13 03:22:00;;;;;;;12.63;11.23;;;5.80;58.50;;;;;;1496384;39;20071;-52
2021/04/13 03:23:25;;;;;;;17.13;12.38;;;5.80;58.30;;;;;;1495801;39;20038;-54
2021/04/13 03:24:49;;;;;;;15.05;11.07;;;5.80;58.20;;;;;;1494887;39;20165;-52
2021/04/13 03:26:16;;;;;;;15.60;11.93;;;5.80;58.30;;;;;;1490625;39;20020;-54
2021/04/13 03:27:39;;;;;;;15.93;12.15;;;5.70;58.30;;;;;;1496529;39;20030;-51
2021/04/13 03:29:10;;;;;;;15.38;12.07;;;5.80;58.30;;;;;;1496641;39;20070;-50
2021/04/13 03:30:36;;;;;;;14.68;12.15;;;5.70;58.30;;;;;;1497800;39;20039;-54
2021/04/13 03:32:00;;;;;;;15.63;11.93;;;5.70;58.30;;;;;;1493274;39;20244;-54
2021/04/13 03:33:25;;;;;;;15.50;12.38;;;5.70;58.30;;;;;;1494712;39;20042;-52
2021/04/13 03:34:46;;;;;;;15.98;11.55;;;5.70;58.40;;;;;;1497785;39;20251;-51
2021/04/13 03:36:19;;;;;;;14.45;12.02;;;5.70;58.40;;;;;;1496403;39;20027;-53
2021/04/13 03:37:42;;;;;;;12.68;11.32;;;5.70;58.50;;;;;;1497415;39;20483;-53
2021/04/13 03:39:11;;;;;;;15.38;12.15;;;5.70;58.40;;;;;;1495461;39;20043;-53
2021/04/13 03:40:34;;;;;;;14.68;11.77;;;5.70;58.40;;;;;;1496788;39;20042;-51
2021/04/13 03:41:57;;;;;;;13.98;11.32;;;5.70;58.30;;;;;;1497559;39;20092;-52
2021/04/13 03:43:27;;;;;;;15.43;11.82;;;5.70;58.30;;;;;;1498871;39;20031;-51
2021/04/13 03:44:50;;;;;;;12.98;11.10;;;5.70;58.40;;;;;;1496183;39;20031;-49
2021/04/13 03:46:12;;;;;;;16.00;12.25;;;5.70;58.40;;;;;;1493953;39;20333;-54
2021/04/13 03:47:36;;;;;;;15.13;12.07;;;5.70;58.30;;;;;;1494963;39;20026;-54
2021/04/13 03:48:58;;;;;;;17.05;11.88;;;5.70;58.40;;;;;;1495914;39;20031;-53
2021/04/13 03:50:24;;;;;;;14.13;11.50;;;5.60;58.30;;;;;;1498624;39;20027;-53
2021/04/13 03:51:49;;;;;;;14.13;11.68;;;5.60;58.40;;;;;;1497023;39;20043;-51
2021/04/13 03:53:16;;;;;;;16.85;11.68;;;5.60;58.40;;;;;;1497673;39;20026;-55
2021/04/13 03:54:39;;;;;;;14.65;12.00;;;5.60;58.40;;;;;;1498482;39;20038;-54
2021/04/13 03:56:05;;;;;;;16.55;12.57;;;5.60;58.40;;;;;;1497814;39;20507;-54
2021/04/13 03:57:35;;;;;;;16.02;11.93;;;5.60;58.50;;;;;;1499868;39;20111;-54
2021/04/13 03:58:58;;;;;;;14.55;11.75;;;5.60;58.50;;;;;;1490745;39;20028;-53
2021/04/13 04:00:26;;;;;;;15.25;11.60;;;5.60;58.40;;;;;;1497323;39;20023;-55
2021/04/13 04:01:47;;;;;;;14.30;11.40;;;5.60;58.30;;;;;;1496300;39;20039;-52
2021/04/13 04:03:10;;;;;;;15.43;12.55;;;5.60;58.30;;;;;;1497099;39;20034;-53
2021/04/13 04:04:35;;;;;;;14.48;11.43;;;5.60;58.30;;;;;;1495965;39;20080;-54
2021/04/13 04:05:56;;;;;;;15.65;12.15;;;5.60;58.50;;;;;;1497318;39;20249;-54
2021/04/13 04:07:35;;;;;;;15.32;12.55;;;5.60;58.50;;;;;;1497926;39;20030;-52
2021/04/13 04:09:21;;;;;;;15.10;11.07;;;5.60;58.50;;;;;;1496346;39;20027;-53
2021/04/13 04:10:42;;;;;;;15.50;11.25;;;5.60;58.60;;;;;;1496456;39;20437;-55
2021/04/13 04:12:22;;;;;;;15.23;11.65;;;5.60;58.30;;;;;;1497477;39;20034;-52
2021/04/13 04:13:49;;;;;;;13.70;11.20;;;5.60;58.50;;;;;;1497157;39;20022;-53
2021/04/13 04:15:11;;;;;;;13.73;11.43;;;5.60;58.50;;;;;;1497810;39;20046;-53
2021/04/13 04:16:33;;;;;;;14.52;10.85;;;5.60;58.30;;;;;;1492700;39;20080;-52
2021/04/13 04:17:54;;;;;;;17.48;12.50;;;5.60;58.30;;;;;;1496578;39;20479;-57
2021/04/13 04:19:24;;;;;;;16.10;12.02;;;5.60;58.30;;;;;;1496038;39;20031;-52
2021/04/13 04:20:45;;;;;;;14.35;11.38;;;5.60;58.50;;;;;;1498481;39;20062;-54
2021/04/13 04:22:14;;;;;;;15.95;11.75;;;5.50;58.30;;;;;;1497341;39;20023;-52
2021/04/13 04:23:35;;;;;;;17.13;11.70;;;5.50;58.40;;;;;;1496008;39;20039;-54
2021/04/13 04:25:16;;;;;;;15.65;11.80;;;5.60;58.30;;;;;;1496617;39;20039;-53
2021/04/13 04:26:51;;;;;;;15.25;11.93;;;5.50;58.50;;;;;;1495340;39;20020;-55
2021/04/13 04:28:23;;;;;;;12.70;10.57;;;5.50;58.40;;;;;;1499128;39;20111;-54
2021/04/13 04:29:45;;;;;;;14.70;11.98;;;5.50;58.40;;;;;;1494303;39;20352;-53
2021/04/13 04:31:35;;;;;;;14.02;11.82;;;5.50;58.30;;;;;;1497609;39;20030;-55
2021/04/13 04:32:58;;;;;;;13.80;10.52;;;5.50;58.60;;;;;;1494075;39;20286;-54
2021/04/13 04:34:19;;;;;;;16.08;12.05;;;5.50;58.40;;;;;;1493443;39;20034;-56
2021/04/13 04:35:43;;;;;;;15.07;11.45;;;5.50;58.30;;;;;;1495780;39;20152;-53
2021/04/13 04:37:31;;;;;;;16.80;11.82;;;5.50;58.40;;;;;;1496244;39;20031;-54
2021/04/13 04:38:53;;;;;;;15.70;11.38;;;5.50;58.60;;;;;;1496281;39;20039;-52
2021/04/13 04:40:35;;;;;;;13.90;11.48;;;5.50;58.40;;;;;;1496644;39;20031;-53
2021/04/13 04:42:07;;;;;;;16.52;11.52;;;5.50;58.30;;;;;;1494009;39;20031;-55
2021/04/13 04:43:39;;;;;;;15.30;11.82;;;5.50;58.30;;;;;;1493284;39;20116;-55
2021/04/13 04:45:15;;;;;;;13.57;11.30;;;5.40;58.20;;;;;;1496596;39;20046;-54
2021/04/13 04:46:39;;;;;;;14.98;11.73;;;5.40;58.30;;;;;;1497346;39;20023;-53
2021/04/13 04:48:27;;;;;;;15.73;11.13;;;5.50;58.20;;;;;;1497073;39;20171;-54
2021/04/13 04:49:48;;;;;;;14.20;10.82;;;5.40;58.30;;;;;;1499074;39;20344;-51
2021/04/13 04:51:11;;;;;;;16.33;10.75;;;5.40;58.10;;;;;;1496306;39;20031;-54
2021/04/13 04:52:32;;;;;;;15.85;12.13;;;5.40;58.20;;;;;;1495437;39;20299;-53
2021/04/13 04:53:53;;;;;;;14.38;11.25;;;5.40;58.20;;;;;;1495150;39;20030;-53
2021/04/13 04:55:15;;;;;;;13.43;10.65;;;5.40;58.40;;;;;;1496750;39;20271;-54
2021/04/13 04:56:36;;;;;;;13.70;11.57;;;5.40;58.40;;;;;;1496545;39;20045;-54
2021/04/13 04:57:57;;;;;;;13.98;11.38;;;5.40;58.40;;;;;;1499412;39;20356;-56
2021/04/13 04:59:18;;;;;;;14.88;11.50;;;5.40;58.40;;;;;;1496185;39;20027;-55
2021/04/13 05:00:38;;;;;;;12.60;11.27;;;5.40;58.50;;;;;;1491525;39;20733;-56
2021/04/13 05:01:59;;;;;;;13.75;10.82;;;5.30;58.50;;;;;;1496705;39;20027;-51
2021/04/13 05:03:22;;;;;;;14.23;11.68;;;5.30;58.50;;;;;;1498845;39;20031;-55
2021/04/13 05:04:45;;;;;;;14.95;11.80;;;5.30;58.50;;;;;;1494899;39;20037;-54
2021/04/13 05:06:06;;;;;;;15.38;10.73;;;5.30;58.50;;;;;;1496827;39;20043;-55
2021/04/13 05:07:27;;;;;;;15.18;11.43;;;5.30;58.90;;;;;;1496268;39;20092;-51
2021/04/13 05:08:48;;;;;;;15.40;10.85;;;5.30;58.50;;;;;;1495732;39;20266;-54
2021/04/13 05:10:10;;;;;;;14.98;11.55;;;5.30;58.50;;;;;;1496243;39;20517;-56
2021/04/13 05:11:31;;;;;;;15.65;12.32;;;5.30;58.60;;;;;;1497024;39;20043;-54
2021/04/13 05:12:51;;;;;;;15.00;11.93;;;5.30;58.70;;;;;;1493451;39;20370;-55
2021/04/13 05:14:12;;;;;;;16.80;12.50;;;5.30;58.70;;;;;;1494847;39;20035;-54
2021/04/13 05:15:33;;;;;;;14.77;11.25;;;5.30;58.70;;;;;;1497201;39;20054;-51
2021/04/13 05:16:54;;;;;;;17.75;11.25;;;5.30;58.80;;;;;;1492882;39;20071;-52
2021/04/13 05:18:16;;;;;;;13.82;11.02;;;5.30;58.80;;;;;;1495079;39;20248;-53
2021/04/13 05:19:37;;;;;;;14.35;11.13;;;5.30;58.90;;;;;;1498579;39;20046;-53
2021/04/13 05:20:58;;;;;;;15.93;11.50;;;5.30;58.90;;;;;;1493456;39;20116;-54
2021/04/13 05:22:18;;;;;;;15.05;11.38;;;5.30;59.00;;;;;;1497209;39;20023;-52
2021/04/13 05:23:39;;;;;;;15.93;11.55;;;5.30;59.00;;;;;;1496058;39;20031;-53
2021/04/13 05:25:00;;;;;;;16.45;11.25;;;5.40;59.00;;;;;;1495993;39;20164;-52
2021/04/13 05:26:21;;;;;;;14.38;11.32;;;5.30;58.90;;;;;;1492286;39;20261;-54
2021/04/13 05:27:42;;;;;;;14.13;10.82;;;5.40;58.90;;;;;;1496973;39;20053;-52
2021/04/13 05:29:05;;;;;;;13.98;11.48;;;5.40;59.00;;;;;;1494074;39;20026;-53
2021/04/13 05:30:27;;;;;;;14.70;10.75;;;5.30;58.90;;;;;;1494194;39;20046;-54
2021/04/13 05:31:48;;;;;;;15.57;11.65;;;5.40;59.00;;;;;;1497331;39;20043;-50
2021/04/13 05:33:08;;;;;;;14.27;10.90;;;5.40;59.00;;;;;;1495952;39;20023;-51
2021/04/13 05:34:29;;;;;;;12.07;10.52;;;5.40;59.00;;;;;;1493946;39;20027;-53
2021/04/13 05:35:51;;;;;;;13.90;11.27;;;5.40;58.90;;;;;;1494136;39;20035;-52
2021/04/13 05:37:12;;;;;;;14.57;11.68;;;5.40;58.90;;;;;;1497321;39;20054;-54
2021/04/13 05:38:42;;;;;;;15.52;11.70;;;5.40;59.00;;;;;;1496580;39;20078;-54
2021/04/13 05:40:05;;;;;;;;;;;5.40;59.10;;;;;;1496850;39;20367;-52
2021/04/13 05:41:27;;;;;;;11.30;9.35;;;5.40;59.30;;;;;;1494193;39;19934;-54
2021/04/13 05:42:49;;;;;;;14.80;10.63;;;5.40;58.90;;;;;;1497550;39;20039;-52
2021/04/13 05:44:10;;;;;;;14.10;10.00;;;5.40;58.90;;;;;;1494406;39;20235;-54
2021/04/13 05:45:35;;;;;;;14.52;10.50;;;5.50;59.00;;;;;;1498607;39;20119;-51
2021/04/13 05:46:56;;;;;;;13.00;10.38;;;5.50;59.10;;;;;;1498759;39;20035;-50
2021/04/13 05:48:17;;;;;;;13.27;10.75;;;5.50;59.10;;;;;;1499090;39;20268;-52
2021/04/13 05:49:38;;;;;;;15.40;11.07;;;5.50;59.10;;;;;;1496627;39;20183;-52
2021/04/13 05:50:59;;;;;;;13.90;11.20;;;5.50;59.10;;;;;;1494592;39;20027;-55
2021/04/13 05:52:20;;;;;;;12.98;10.32;;;5.50;59.10;;;;;;1492055;39;20307;-55
2021/04/13 05:53:41;;;;;;;14.73;11.02;;;5.50;59.20;;;;;;1494449;39;20349;-57
2021/04/13 05:55:03;;;;;;;13.73;11.02;;;5.50;59.30;;;;;;1494755;39;20035;-53
2021/04/13 05:56:30;;;;;;;14.80;10.85;;;5.50;59.40;;;;;;1495511;39;20371;-55
2021/04/13 05:57:54;;;;;;;11.98;10.02;;;5.50;59.40;;;;;;1494821;39;20031;-54
2021/04/13 05:59:15;;;;;;;17.50;10.85;;;5.60;59.40;;;;;;1493227;39;20338;-52
2021/04/13 06:00:37;;;;;;;11.52;10.18;;;5.50;59.40;;;;;;1494857;39;20418;-56
2021/04/13 06:01:58;;;;;;;13.73;9.82;;;5.50;59.30;;;;;;1497660;39;20045;-53
2021/04/13 06:03:21;;;;;;;13.75;10.02;;;5.50;59.30;;;;;;1497025;39;20042;-53
2021/04/13 06:04:42;;;;;;;13.55;10.20;;;5.60;59.40;;;;;;1496866;39;20359;-53
2021/04/13 06:06:03;;;;;;;13.85;10.52;;;5.60;59.40;;;;;;1496753;39;20039;-55
2021/04/13 06:07:24;;;;;;;14.57;11.20;;;5.60;59.50;;;;;;1497505;39;20267;-56
2021/04/13 06:08:46;;;;;;;13.77;10.68;;;5.60;59.50;;;;;;1496605;39;20034;-54
2021/04/13 06:10:08;;;;;;;13.90;10.52;;;5.60;59.60;;;;;;1497732;39;20031;-54
2021/04/13 06:11:31;;;;;;;13.90;10.15;;;5.60;59.70;;;;;;1495783;39;20056;-56
2021/04/13 06:12:58;;;;;;;12.10;10.45;;;5.70;59.80;;;;;;1493671;39;20118;-54
2021/04/13 06:14:21;;;;;;;13.60;9.93;;;5.70;59.90;;;;;;1497282;39;20025;-56
2021/04/13 06:15:42;;;;;;;13.85;11.07;;;5.70;60.00;;;;;;1495100;39;20123;-56
2021/04/13 06:17:03;;;;;;;15.35;10.27;;;5.70;60.00;;;;;;1496443;39;20220;-53
2021/04/13 06:18:25;;;;;;;14.43;10.38;;;5.80;60.00;;;;;;1493161;39;20463;-52
2021/04/13 06:19:45;;;;;;;12.80;10.65;;;5.80;60.00;;;;;;1496228;39;20462;-55
2021/04/13 06:21:06;;;;;;;12.25;10.20;;;5.80;60.00;;;;;;1495913;39;20030;-51
2021/04/13 06:22:27;;;;;;;13.38;10.27;;;5.90;60.10;;;;;;1496630;39;20094;-53
2021/04/13 06:23:48;;;;;;;16.38;12.18;;;5.90;60.00;;;;;;1498236;39;20046;-54
2021/04/13 06:25:10;;;;;;;13.80;10.95;;;5.90;60.00;;;;;;1496292;39;20035;-52
2021/04/13 06:26:31;;;;;;;12.85;10.30;;;5.90;60.00;;;;;;1491859;39;20028;-52
2021/04/13 06:27:53;;;;;;;15.38;11.05;;;6.00;59.90;;;;;;1494845;39;20116;-55
2021/04/13 06:29:14;;;;;;;14.30;10.63;;;6.00;59.90;;;;;;1495122;39;20028;-54
2021/04/13 06:30:37;;;;;;;12.05;9.55;;;6.10;59.90;;;;;;1494179;39;20043;-52
2021/04/13 06:31:58;;;;;;;13.18;9.57;;;6.10;59.90;;;;;;1495434;39;20360;-55
2021/04/13 06:33:20;;;;;;;12.55;9.50;;;6.10;59.80;;;;;;1499202;39;20395;-52
2021/04/13 06:34:41;;;;;;;15.88;10.82;;;6.10;59.80;;;;;;1497661;39;20091;-55
2021/04/13 06:36:06;;;;;;;12.68;9.27;;;6.10;59.80;;;;;;1497087;39;20116;-52
2021/04/13 06:37:27;;;;;;;11.52;9.73;;;6.10;59.70;;;;;;1493064;39;20028;-54
2021/04/13 06:38:48;;;;;;;15.38;10.05;;;6.20;59.70;;;;;;1498040;39;20259;-55
2021/04/13 06:40:37;;;;;;;13.10;10.07;;;6.20;59.60;;;;;;1497033;39;20034;-55
2021/04/13 06:42:42;;;;;;;11.25;8.93;;;6.20;59.60;;;;;;1484225;39;20143;-53
2021/04/13 06:44:22;;;;;;;10.23;8.80;;;6.20;59.90;;;;;;1478137;40;20052;-55
2021/04/13 06:45:59;;;;;;;10.07;8.45;;;6.20;59.50;;;;;;1483363;39;20025;-55
2021/04/13 06:47:46;;;;;;;12.45;9.38;;;6.30;59.60;;;;;;1499327;39;20053;-55
2021/04/13 06:49:07;;;;;;;11.45;8.93;;;6.30;59.70;;;;;;1495915;39;20059;-56
2021/04/13 06:50:55;;;;;;;13.02;8.98;;;6.30;59.50;;;;;;1497156;39;20035;-51
2021/04/13 06:52:48;;;;;;;13.68;9.57;;;6.30;59.80;;;;;;1496373;39;20034;-55
2021/04/13 06:54:27;;;;;;;12.35;9.30;;;6.30;59.80;;;;;;1497741;39;20359;-55
2021/04/13 06:55:48;;;;;;;15.30;9.27;;;6.30;59.80;;;;;;1498497;39;20111;-55
2021/04/13 06:57:41;;;;;;;13.35;9.20;;;6.30;59.80;;;;;;1495199;39;20103;-54
2021/04/13 06:59:23;;;;;;;13.82;9.30;;;6.40;59.90;;;;;;1494029;39;20110;-54
2021/04/13 07:01:07;;;;;;;11.95;9.13;;;6.40;60.10;;;;;;1496103;39;20056;-52
2021/04/13 07:02:38;;;;;;;12.55;9.38;;;6.40;60.00;;;;;;1496126;39;20103;-52
2021/04/13 07:04:11;;;;;;;12.48;9.20;;;6.50;60.20;;;;;;1494443;39;20023;-54
2021/04/13 07:05:39;;;;;;;11.48;9.13;;;6.50;60.30;;;;;;1496810;39;20051;-52
2021/04/13 07:07:16;;;;;;;10.90;8.60;;;6.50;60.30;;;;;;1493376;39;20035;-53
2021/04/13 07:08:41;;;;;;;12.05;8.25;;;6.50;60.40;;;;;;1496554;39;20030;-50
2021/04/13 07:10:23;;;;;;;14.07;9.52;;;6.50;60.50;;;;;;1494184;39;20032;-52
2021/04/13 07:11:55;;;;;;;11.63;8.52;;;6.60;60.90;;;;;;1489570;39;20116;-52
2021/04/13 07:13:27;;;;;;;12.93;8.48;;;6.60;60.70;;;;;;1497328;39;20115;-54
2021/04/13 07:15:19;;;;;;;10.82;7.93;;;6.70;60.90;;;;;;1494463;39;20354;-51
2021/04/13 07:16:53;;;;;;;11.70;7.55;;;6.70;61.20;;;;;;1495523;39;20044;-51
2021/04/13 07:18:32;;;;;;;11.90;8.15;;;6.70;61.00;;;;;;1498535;39;20049;-53
2021/04/13 07:20:00;;;;;;;11.90;8.23;;;6.80;61.10;;;;;;1494882;39;20032;-51
2021/04/13 07:21:33;;;;;;;10.88;7.57;;;6.80;60.90;;;;;;1496719;39;20036;-52
2021/04/13 07:23:02;;;;;;;11.82;7.68;;;6.90;61.10;;;;;;1498042;39;20039;-52
2021/04/13 07:24:45;;;;;;;8.77;7.32;;;6.90;61.00;;;;;;1497093;39;20394;-53
2021/04/13 07:26:35;;;;;;;9.73;7.30;;;7.00;61.00;;;;;;1495913;39;20035;-52
2021/04/13 07:27:57;;;;;;;12.75;6.97;;;7.00;61.30;;;;;;1496546;39;20042;-52
2021/04/13 07:29:24;;;;;;;8.32;6.43;;;7.10;60.90;;;;;;1496111;39;20047;-52
2021/04/13 07:31:17;;;;;;;11.13;6.28;;;7.10;61.10;;;;;;1493913;39;20093;-53
2021/04/13 07:32:38;;;;;;;10.05;6.57;;;7.20;61.30;;;;;;1496180;39;20031;-55
2021/04/13 07:33:59;;;;;;;9.73;6.72;;;7.20;61.80;;;;;;1495693;39;20015;-52
2021/04/13 07:35:22;;;;;;;11.52;6.53;;;7.30;61.00;;;;;;1495175;39;20047;-54